sensor_id;sensor_type;location;lat;lon;timestamp;P1;durP1;ratioP1;P2;durP2;ratioP2
58260;SDS011;44058;52.898;6.502;2024-02-23T11:57:46;4.07;;;1.15;;
58260;SDS011;44058;52.898;6.502;2024-02-23T12:00:13;3.38;;;1.30;;
58260;SDS011;44058;52.898;6.502;2024-02-23T12:02:41;4.13;;;1.10;;
58260;SDS011;44058;52.898;6.502;2024-02-23T12:05:08;5.03;;;1.20;;
58260;SDS011;44058;52.898;6.502;2024-02-23T12:07:36;5.53;;;1.10;;
58260;SDS011;44058;52.898;6.502;2024-02-23T12:10:03;4.90;;;1.23;;
58260;SDS011;44058;52.898;6.502;2024-02-23T12:12:32;4.95;;;1.02;;
58260;SDS011;44058;52.898;6.502;2024-02-23T12:14:59;1.63;;;0.75;;
58260;SDS011;44058;52.898;6.502;2024-02-23T12:17:26;5.18;;;1.10;;
58260;SDS011;44058;52.898;6.502;2024-02-23T12:20:02;2.63;;;1.23;;
58260;SDS011;44058;52.898;6.502;2024-02-23T12:22:30;3.38;;;1.00;;
58260;SDS011;44058;52.898;6.502;2024-02-23T12:24:58;3.65;;;1.40;;
58260;SDS011;44058;52.898;6.502;2024-02-23T12:27:25;3.35;;;1.00;;
58260;SDS011;44058;52.898;6.502;2024-02-23T12:29:55;2.10;;;0.80;;
58260;SDS011;44058;52.898;6.502;2024-02-23T12:32:24;5.10;;;0.90;;
58260;SDS011;44058;52.898;6.502;2024-02-23T12:34:55;2.15;;;0.98;;
58260;SDS011;44058;52.898;6.502;2024-02-23T12:37:23;4.32;;;1.30;;
58260;SDS011;44058;52.898;6.502;2024-02-23T12:39:51;3.20;;;0.95;;
58260;SDS011;44058;52.898;6.502;2024-02-23T12:42:18;3.42;;;1.15;;
58260;SDS011;44058;52.898;6.502;2024-02-23T12:44:45;4.75;;;1.25;;
58260;SDS011;44058;52.898;6.502;2024-02-23T12:47:13;7.05;;;1.25;;
58260;SDS011;44058;52.898;6.502;2024-02-23T12:49:41;4.07;;;1.10;;
58260;SDS011;44058;52.898;6.502;2024-02-23T12:52:08;5.43;;;1.25;;
58260;SDS011;44058;52.898;6.502;2024-02-23T12:54:36;3.72;;;1.20;;
58260;SDS011;44058;52.898;6.502;2024-02-23T12:57:03;3.63;;;1.10;;
58260;SDS011;44058;52.898;6.502;2024-02-23T12:59:31;4.97;;;1.60;;
58260;SDS011;44058;52.898;6.502;2024-02-23T13:01:59;9.52;;;2.63;;
58260;SDS011;44058;52.898;6.502;2024-02-23T13:04:26;4.07;;;1.42;;
58260;SDS011;44058;52.898;6.502;2024-02-23T13:06:53;5.40;;;2.25;;
58260;SDS011;44058;52.898;6.502;2024-02-23T13:09:21;7.85;;;2.28;;
58260;SDS011;44058;52.898;6.502;2024-02-23T13:11:50;8.45;;;2.97;;
58260;SDS011;44058;52.898;6.502;2024-02-23T13:14:16;5.80;;;1.80;;
58260;SDS011;44058;52.898;6.502;2024-02-23T13:16:43;2.63;;;1.33;;
58260;SDS011;44058;52.898;6.502;2024-02-23T13:19:10;4.25;;;1.80;;
58260;SDS011;44058;52.898;6.502;2024-02-23T13:21:39;2.50;;;0.97;;
58260;SDS011;44058;52.898;6.502;2024-02-23T13:24:05;5.07;;;1.88;;
58260;SDS011;44058;52.898;6.502;2024-02-23T13:26:33;1.88;;;1.25;;
58260;SDS011;44058;52.898;6.502;2024-02-23T13:29:00;3.40;;;1.30;;
58260;SDS011;44058;52.898;6.502;2024-02-23T13:31:27;5.07;;;1.60;;
58260;SDS011;44058;52.898;6.502;2024-02-23T13:33:54;5.68;;;1.33;;
58260;SDS011;44058;52.898;6.502;2024-02-23T13:36:21;3.90;;;1.30;;
58260;SDS011;44058;52.898;6.502;2024-02-23T13:38:51;3.80;;;1.40;;
58260;SDS011;44058;52.898;6.502;2024-02-23T13:41:18;4.53;;;1.92;;
58260;SDS011;44058;52.898;6.502;2024-02-23T13:43:45;3.95;;;1.15;;
58260;SDS011;44058;52.898;6.502;2024-02-23T13:46:13;3.33;;;1.42;;
58260;SDS011;44058;52.898;6.502;2024-02-23T13:48:40;2.03;;;1.30;;
58260;SDS011;44058;52.898;6.502;2024-02-23T13:51:07;3.80;;;1.60;;
58260;SDS011;44058;52.898;6.502;2024-02-23T13:53:34;3.20;;;1.65;;
58260;SDS011;44058;52.898;6.502;2024-02-23T13:56:04;3.60;;;1.20;;
58260;SDS011;44058;52.898;6.502;2024-02-23T13:58:31;6.25;;;1.65;;
58260;SDS011;44058;52.898;6.502;2024-02-23T14:00:59;4.85;;;1.27;;
58260;SDS011;44058;52.898;6.502;2024-02-23T14:03:26;5.03;;;1.38;;
58260;SDS011;44058;52.898;6.502;2024-02-23T14:05:53;6.70;;;1.50;;
58260;SDS011;44058;52.898;6.502;2024-02-23T14:08:40;3.95;;;1.33;;
58260;SDS011;44058;52.898;6.502;2024-02-23T14:11:27;4.53;;;1.58;;
58260;SDS011;44058;52.898;6.502;2024-02-23T14:14:13;4.28;;;1.52;;
58260;SDS011;44058;52.898;6.502;2024-02-23T14:16:41;3.95;;;2.03;;
58260;SDS011;44058;52.898;6.502;2024-02-23T14:19:08;5.78;;;1.90;;
58260;SDS011;44058;52.898;6.502;2024-02-23T14:21:36;4.07;;;1.50;;
58260;SDS011;44058;52.898;6.502;2024-02-23T14:24:22;4.07;;;1.60;;
58260;SDS011;44058;52.898;6.502;2024-02-23T14:26:49;4.15;;;1.40;;
58260;SDS011;44058;52.898;6.502;2024-02-23T14:29:19;5.82;;;1.70;;
58260;SDS011;44058;52.898;6.502;2024-02-23T14:31:47;5.22;;;1.52;;
58260;SDS011;44058;52.898;6.502;2024-02-23T14:34:14;2.80;;;1.25;;
58260;SDS011;44058;52.898;6.502;2024-02-23T14:36:41;3.88;;;1.48;;
58260;SDS011;44058;52.898;6.502;2024-02-23T14:39:10;3.95;;;1.50;;
58260;SDS011;44058;52.898;6.502;2024-02-23T14:41:57;3.70;;;1.20;;
58260;SDS011;44058;52.898;6.502;2024-02-23T14:44:24;3.97;;;1.42;;
58260;SDS011;44058;52.898;6.502;2024-02-23T14:46:50;4.68;;;1.38;;
58260;SDS011;44058;52.898;6.502;2024-02-23T14:49:17;3.88;;;1.50;;
58260;SDS011;44058;52.898;6.502;2024-02-23T14:51:43;6.13;;;1.50;;
58260;SDS011;44058;52.898;6.502;2024-02-23T14:54:11;4.53;;;1.52;;
58260;SDS011;44058;52.898;6.502;2024-02-23T14:56:38;3.20;;;1.30;;
58260;SDS011;44058;52.898;6.502;2024-02-23T14:59:05;3.75;;;1.45;;
58260;SDS011;44058;52.898;6.502;2024-02-23T15:04:00;6.97;;;1.65;;
58260;SDS011;44058;52.898;6.502;2024-02-23T15:06:26;4.18;;;1.58;;
58260;SDS011;44058;52.898;6.502;2024-02-23T15:08:54;4.20;;;1.40;;
58260;SDS011;44058;52.898;6.502;2024-02-23T15:11:21;6.30;;;1.50;;
58260;SDS011;44058;52.898;6.502;2024-02-23T15:13:48;4.82;;;1.75;;
58260;SDS011;44058;52.898;6.502;2024-02-23T15:16:17;4.15;;;1.65;;
58260;SDS011;44058;52.898;6.502;2024-02-23T15:18:44;3.15;;;1.73;;
58260;SDS011;44058;52.898;6.502;2024-02-23T15:21:11;2.65;;;1.33;;
58260;SDS011;44058;52.898;6.502;2024-02-23T15:23:38;4.93;;;1.42;;
58260;SDS011;44058;52.898;6.502;2024-02-23T15:26:06;4.05;;;2.28;;
58260;SDS011;44058;52.898;6.502;2024-02-23T15:28:33;3.25;;;1.83;;
58260;SDS011;44058;52.898;6.502;2024-02-23T15:31:00;3.55;;;1.63;;
58260;SDS011;44058;52.898;6.502;2024-02-23T15:33:28;4.30;;;1.97;;
58260;SDS011;44058;52.898;6.502;2024-02-23T15:35:56;6.07;;;1.60;;
58260;SDS011;44058;52.898;6.502;2024-02-23T15:38:23;6.25;;;2.88;;
58260;SDS011;44058;52.898;6.502;2024-02-23T15:40:50;4.82;;;2.10;;
58260;SDS011;44058;52.898;6.502;2024-02-23T15:43:18;4.25;;;2.08;;
58260;SDS011;44058;52.898;6.502;2024-02-23T15:45:46;5.07;;;2.00;;
58260;SDS011;44058;52.898;6.502;2024-02-23T15:48:13;4.82;;;2.10;;
58260;SDS011;44058;52.898;6.502;2024-02-23T15:50:40;4.18;;;1.90;;
58260;SDS011;44058;52.898;6.502;2024-02-23T15:53:08;3.38;;;1.52;;
58260;SDS011;44058;52.898;6.502;2024-02-23T15:55:38;2.88;;;1.35;;
58260;SDS011;44058;52.898;6.502;2024-02-23T15:58:05;4.50;;;1.70;;
58260;SDS011;44058;52.898;6.502;2024-02-23T16:00:33;2.55;;;1.30;;
58260;SDS011;44058;52.898;6.502;2024-02-23T16:03:00;2.45;;;1.33;;
58260;SDS011;44058;52.898;6.502;2024-02-23T16:05:27;4.03;;;1.35;;
58260;SDS011;44058;52.898;6.502;2024-02-23T16:07:54;3.88;;;1.77;;
58260;SDS011;44058;52.898;6.502;2024-02-23T16:10:22;5.40;;;2.00;;
58260;SDS011;44058;52.898;6.502;2024-02-23T16:12:50;2.88;;;1.05;;
58260;SDS011;44058;52.898;6.502;2024-02-23T16:15:18;3.75;;;1.33;;
58260;SDS011;44058;52.898;6.502;2024-02-23T16:17:45;3.28;;;1.73;;
58260;SDS011;44058;52.898;6.502;2024-02-23T16:20:12;3.53;;;1.42;;
58260;SDS011;44058;52.898;6.502;2024-02-23T16:22:40;4.60;;;1.50;;
58260;SDS011;44058;52.898;6.502;2024-02-23T16:27:39;4.10;;;1.98;;
58260;SDS011;44058;52.898;6.502;2024-02-23T16:30:11;4.35;;;2.15;;
58260;SDS011;44058;52.898;6.502;2024-02-23T16:32:38;5.43;;;2.60;;
58260;SDS011;44058;52.898;6.502;2024-02-23T16:35:05;6.25;;;2.35;;
58260;SDS011;44058;52.898;6.502;2024-02-23T16:37:33;6.53;;;1.70;;
58260;SDS011;44058;52.898;6.502;2024-02-23T16:40:00;3.78;;;1.95;;
58260;SDS011;44058;52.898;6.502;2024-02-23T16:42:27;4.55;;;1.90;;
58260;SDS011;44058;52.898;6.502;2024-02-23T16:44:54;4.40;;;1.45;;
58260;SDS011;44058;52.898;6.502;2024-02-23T16:47:23;3.65;;;1.30;;
58260;SDS011;44058;52.898;6.502;2024-02-23T16:49:51;4.00;;;1.60;;
58260;SDS011;44058;52.898;6.502;2024-02-23T16:52:26;5.35;;;1.67;;
58260;SDS011;44058;52.898;6.502;2024-02-23T16:54:53;4.25;;;1.42;;
58260;SDS011;44058;52.898;6.502;2024-02-23T16:57:20;4.40;;;1.83;;
58260;SDS011;44058;52.898;6.502;2024-02-23T16:59:48;5.15;;;1.90;;
58260;SDS011;44058;52.898;6.502;2024-02-23T17:02:17;5.53;;;1.83;;
58260;SDS011;44058;52.898;6.502;2024-02-23T17:04:44;3.05;;;1.80;;
58260;SDS011;44058;52.898;6.502;2024-02-23T17:07:11;6.10;;;1.90;;
58260;SDS011;44058;52.898;6.502;2024-02-23T17:09:38;5.65;;;1.40;;
58260;SDS011;44058;52.898;6.502;2024-02-23T17:12:06;3.72;;;1.65;;
58260;SDS011;44058;52.898;6.502;2024-02-23T17:14:33;3.35;;;1.50;;
58260;SDS011;44058;52.898;6.502;2024-02-23T17:17:07;4.00;;;1.70;;
58260;SDS011;44058;52.898;6.502;2024-02-23T17:19:34;3.83;;;1.40;;
58260;SDS011;44058;52.898;6.502;2024-02-23T17:22:01;2.80;;;1.98;;
58260;SDS011;44058;52.898;6.502;2024-02-23T17:24:28;5.35;;;2.03;;
58260;SDS011;44058;52.898;6.502;2024-02-23T17:26:55;4.55;;;2.33;;
58260;SDS011;44058;52.898;6.502;2024-02-23T17:29:24;3.80;;;2.10;;
58260;SDS011;44058;52.898;6.502;2024-02-23T17:31:52;5.03;;;2.03;;
58260;SDS011;44058;52.898;6.502;2024-02-23T17:34:20;3.10;;;1.73;;
58260;SDS011;44058;52.898;6.502;2024-02-23T17:36:48;4.18;;;2.05;;
58260;SDS011;44058;52.898;6.502;2024-02-23T17:39:15;5.35;;;2.10;;
58260;SDS011;44058;52.898;6.502;2024-02-23T17:41:43;4.10;;;1.50;;
58260;SDS011;44058;52.898;6.502;2024-02-23T17:44:11;4.15;;;1.52;;
58260;SDS011;44058;52.898;6.502;2024-02-23T17:46:38;3.90;;;1.65;;
58260;SDS011;44058;52.898;6.502;2024-02-23T17:49:08;2.33;;;1.10;;
58260;SDS011;44058;52.898;6.502;2024-02-23T17:51:35;3.33;;;1.05;;
58260;SDS011;44058;52.898;6.502;2024-02-23T17:54:22;2.45;;;1.00;;
58260;SDS011;44058;52.898;6.502;2024-02-23T17:56:50;1.13;;;0.80;;
58260;SDS011;44058;52.898;6.502;2024-02-23T17:59:16;3.67;;;1.00;;
58260;SDS011;44058;52.898;6.502;2024-02-23T18:01:43;3.28;;;1.33;;
58260;SDS011;44058;52.898;6.502;2024-02-23T18:04:09;3.33;;;1.15;;
58260;SDS011;44058;52.898;6.502;2024-02-23T18:06:36;2.10;;;1.00;;
58260;SDS011;44058;52.898;6.502;2024-02-23T18:09:02;3.38;;;1.30;;
58260;SDS011;44058;52.898;6.502;2024-02-23T18:11:29;4.43;;;1.38;;
58260;SDS011;44058;52.898;6.502;2024-02-23T18:13:56;4.10;;;1.40;;
58260;SDS011;44058;52.898;6.502;2024-02-23T18:16:23;2.42;;;1.38;;
58260;SDS011;44058;52.898;6.502;2024-02-23T18:18:50;4.30;;;1.70;;
58260;SDS011;44058;52.898;6.502;2024-02-23T18:21:17;4.28;;;1.80;;
58260;SDS011;44058;52.898;6.502;2024-02-23T18:23:43;6.35;;;2.20;;
58260;SDS011;44058;52.898;6.502;2024-02-23T18:26:12;6.05;;;2.35;;
58260;SDS011;44058;52.898;6.502;2024-02-23T18:28:43;6.70;;;2.35;;
58260;SDS011;44058;52.898;6.502;2024-02-23T18:31:09;2.30;;;1.80;;
58260;SDS011;44058;52.898;6.502;2024-02-23T18:33:35;7.10;;;2.10;;
58260;SDS011;44058;52.898;6.502;2024-02-23T18:36:01;3.72;;;1.70;;
58260;SDS011;44058;52.898;6.502;2024-02-23T18:38:28;3.03;;;1.83;;
58260;SDS011;44058;52.898;6.502;2024-02-23T18:40:54;3.30;;;2.20;;
58260;SDS011;44058;52.898;6.502;2024-02-23T18:43:23;5.80;;;1.92;;
58260;SDS011;44058;52.898;6.502;2024-02-23T18:45:50;4.40;;;1.80;;
58260;SDS011;44058;52.898;6.502;2024-02-23T18:48:16;2.42;;;1.30;;
58260;SDS011;44058;52.898;6.502;2024-02-23T18:50:45;2.95;;;1.42;;
58260;SDS011;44058;52.898;6.502;2024-02-23T18:53:11;2.90;;;1.25;;
58260;SDS011;44058;52.898;6.502;2024-02-23T18:55:38;4.22;;;1.38;;
58260;SDS011;44058;52.898;6.502;2024-02-23T18:58:05;4.47;;;1.40;;
58260;SDS011;44058;52.898;6.502;2024-02-23T19:00:33;3.35;;;1.27;;
58260;SDS011;44058;52.898;6.502;2024-02-23T19:03:00;4.80;;;1.60;;
58260;SDS011;44058;52.898;6.502;2024-02-23T19:05:27;4.20;;;1.35;;
58260;SDS011;44058;52.898;6.502;2024-02-23T19:07:54;2.95;;;1.20;;
58260;SDS011;44058;52.898;6.502;2024-02-23T19:10:21;2.63;;;1.35;;
58260;SDS011;44058;52.898;6.502;2024-02-23T19:12:48;3.95;;;1.40;;
58260;SDS011;44058;52.898;6.502;2024-02-23T19:15:15;4.40;;;1.55;;
58260;SDS011;44058;52.898;6.502;2024-02-23T19:17:42;2.50;;;1.05;;
58260;SDS011;44058;52.898;6.502;2024-02-23T19:20:09;1.65;;;1.30;;
58260;SDS011;44058;52.898;6.502;2024-02-23T19:22:36;3.13;;;1.30;;
58260;SDS011;44058;52.898;6.502;2024-02-23T19:25:07;3.10;;;1.40;;
58260;SDS011;44058;52.898;6.502;2024-02-23T19:27:39;4.03;;;1.60;;
58260;SDS011;44058;52.898;6.502;2024-02-23T19:30:06;2.25;;;1.67;;
58260;SDS011;44058;52.898;6.502;2024-02-23T19:32:34;5.25;;;1.48;;
58260;SDS011;44058;52.898;6.502;2024-02-23T19:35:11;2.50;;;1.60;;
58260;SDS011;44058;52.898;6.502;2024-02-23T19:37:38;2.72;;;1.40;;
58260;SDS011;44058;52.898;6.502;2024-02-23T19:40:05;3.88;;;1.30;;
58260;SDS011;44058;52.898;6.502;2024-02-23T19:42:35;3.47;;;1.30;;
58260;SDS011;44058;52.898;6.502;2024-02-23T19:45:03;6.63;;;1.63;;
58260;SDS011;44058;52.898;6.502;2024-02-23T19:47:39;3.60;;;1.38;;
58260;SDS011;44058;52.898;6.502;2024-02-23T19:50:07;3.38;;;1.35;;
58260;SDS011;44058;52.898;6.502;2024-02-23T19:52:34;4.15;;;1.63;;
58260;SDS011;44058;52.898;6.502;2024-02-23T19:55:01;2.72;;;1.50;;
58260;SDS011;44058;52.898;6.502;2024-02-23T19:57:28;2.95;;;1.75;;
58260;SDS011;44058;52.898;6.502;2024-02-23T19:59:55;2.55;;;1.40;;
58260;SDS011;44058;52.898;6.502;2024-02-23T20:02:24;4.82;;;1.80;;
58260;SDS011;44058;52.898;6.502;2024-02-23T20:04:51;3.97;;;1.70;;
58260;SDS011;44058;52.898;6.502;2024-02-23T20:07:20;4.03;;;1.88;;
58260;SDS011;44058;52.898;6.502;2024-02-23T20:09:48;3.83;;;1.52;;
58260;SDS011;44058;52.898;6.502;2024-02-23T20:12:15;5.15;;;1.88;;
58260;SDS011;44058;52.898;6.502;2024-02-23T20:14:44;3.85;;;1.60;;
58260;SDS011;44058;52.898;6.502;2024-02-23T20:17:12;5.17;;;1.90;;
58260;SDS011;44058;52.898;6.502;2024-02-23T20:19:39;2.75;;;1.70;;
58260;SDS011;44058;52.898;6.502;2024-02-23T20:22:06;3.50;;;1.83;;
58260;SDS011;44058;52.898;6.502;2024-02-23T20:24:34;4.18;;;1.80;;
58260;SDS011;44058;52.898;6.502;2024-02-23T20:27:02;2.73;;;1.80;;
58260;SDS011;44058;52.898;6.502;2024-02-23T20:29:32;4.70;;;1.98;;
58260;SDS011;44058;52.898;6.502;2024-02-23T20:31:59;4.57;;;2.08;;
58260;SDS011;44058;52.898;6.502;2024-02-23T20:34:26;2.65;;;2.05;;
58260;SDS011;44058;52.898;6.502;2024-02-23T20:36:53;3.47;;;2.10;;
58260;SDS011;44058;52.898;6.502;2024-02-23T20:39:20;2.70;;;2.10;;
58260;SDS011;44058;52.898;6.502;2024-02-23T20:41:48;5.18;;;2.42;;
58260;SDS011;44058;52.898;6.502;2024-02-23T20:44:15;5.90;;;2.10;;
58260;SDS011;44058;52.898;6.502;2024-02-23T20:46:42;5.75;;;2.13;;
58260;SDS011;44058;52.898;6.502;2024-02-23T20:49:09;4.28;;;2.00;;
58260;SDS011;44058;52.898;6.502;2024-02-23T20:51:37;2.70;;;2.00;;
58260;SDS011;44058;52.898;6.502;2024-02-23T20:54:04;3.97;;;2.47;;
58260;SDS011;44058;52.898;6.502;2024-02-23T20:59:00;4.10;;;1.92;;
58260;SDS011;44058;52.898;6.502;2024-02-23T21:01:27;5.22;;;2.15;;
58260;SDS011;44058;52.898;6.502;2024-02-23T21:03:54;6.30;;;3.08;;
58260;SDS011;44058;52.898;6.502;2024-02-23T21:06:24;5.10;;;2.80;;
58260;SDS011;44058;52.898;6.502;2024-02-23T21:08:55;5.45;;;2.78;;
58260;SDS011;44058;52.898;6.502;2024-02-23T21:11:22;6.07;;;2.30;;
58260;SDS011;44058;52.898;6.502;2024-02-23T21:13:50;3.67;;;1.83;;
58260;SDS011;44058;52.898;6.502;2024-02-23T21:16:18;5.50;;;2.38;;
58260;SDS011;44058;52.898;6.502;2024-02-23T21:18:45;3.85;;;2.05;;
58260;SDS011;44058;52.898;6.502;2024-02-23T21:21:12;5.53;;;2.05;;
58260;SDS011;44058;52.898;6.502;2024-02-23T21:23:43;6.45;;;1.77;;
58260;SDS011;44058;52.898;6.502;2024-02-23T21:26:10;3.65;;;2.10;;
58260;SDS011;44058;52.898;6.502;2024-02-23T21:28:38;4.38;;;2.13;;
58260;SDS011;44058;52.898;6.502;2024-02-23T21:31:05;4.07;;;2.30;;
58260;SDS011;44058;52.898;6.502;2024-02-23T21:33:32;4.78;;;2.30;;
58260;SDS011;44058;52.898;6.502;2024-02-23T21:35:59;4.03;;;2.30;;
58260;SDS011;44058;52.898;6.502;2024-02-23T21:38:27;6.15;;;2.20;;
58260;SDS011;44058;52.898;6.502;2024-02-23T21:40:54;5.10;;;2.10;;
58260;SDS011;44058;52.898;6.502;2024-02-23T21:43:21;5.20;;;2.30;;
58260;SDS011;44058;52.898;6.502;2024-02-23T21:45:48;5.25;;;2.15;;
58260;SDS011;44058;52.898;6.502;2024-02-23T21:48:15;4.00;;;1.88;;
58260;SDS011;44058;52.898;6.502;2024-02-23T21:50:43;4.10;;;1.90;;
58260;SDS011;44058;52.898;6.502;2024-02-23T21:53:10;3.55;;;1.58;;
58260;SDS011;44058;52.898;6.502;2024-02-23T21:55:38;3.88;;;2.08;;
58260;SDS011;44058;52.898;6.502;2024-02-23T21:58:05;2.97;;;2.08;;
58260;SDS011;44058;52.898;6.502;2024-02-23T22:00:32;5.75;;;1.90;;
58260;SDS011;44058;52.898;6.502;2024-02-23T22:03:00;4.10;;;1.80;;
58260;SDS011;44058;52.898;6.502;2024-02-23T22:05:28;4.05;;;2.50;;
58260;SDS011;44058;52.898;6.502;2024-02-23T22:07:55;4.05;;;1.92;;
58260;SDS011;44058;52.898;6.502;2024-02-23T22:10:23;3.78;;;2.03;;
58260;SDS011;44058;52.898;6.502;2024-02-23T22:12:50;3.63;;;2.28;;
58260;SDS011;44058;52.898;6.502;2024-02-23T22:15:17;4.47;;;2.05;;
58260;SDS011;44058;52.898;6.502;2024-02-23T22:17:46;2.80;;;1.60;;
58260;SDS011;44058;52.898;6.502;2024-02-23T22:20:13;3.42;;;1.50;;
58260;SDS011;44058;52.898;6.502;2024-02-23T22:22:40;3.90;;;1.60;;
58260;SDS011;44058;52.898;6.502;2024-02-23T22:25:08;4.60;;;1.92;;
58260;SDS011;44058;52.898;6.502;2024-02-23T22:27:35;2.17;;;1.30;;
58260;SDS011;44058;52.898;6.502;2024-02-23T22:30:03;1.75;;;1.55;;
58260;SDS011;44058;52.898;6.502;2024-02-23T22:32:31;3.05;;;1.40;;
58260;SDS011;44058;52.898;6.502;2024-02-23T22:34:58;3.85;;;1.65;;
58260;SDS011;44058;52.898;6.502;2024-02-23T22:37:29;4.43;;;1.50;;
58260;SDS011;44058;52.898;6.502;2024-02-23T22:39:56;1.92;;;1.55;;
58260;SDS011;44058;52.898;6.502;2024-02-23T22:42:23;2.85;;;1.60;;
58260;SDS011;44058;52.898;6.502;2024-02-23T22:44:50;3.55;;;1.55;;
58260;SDS011;44058;52.898;6.502;2024-02-23T22:47:17;5.03;;;1.77;;
58260;SDS011;44058;52.898;6.502;2024-02-23T22:49:44;2.55;;;1.50;;
58260;SDS011;44058;52.898;6.502;2024-02-23T22:52:12;2.35;;;1.30;;
58260;SDS011;44058;52.898;6.502;2024-02-23T22:54:39;3.40;;;1.50;;
58260;SDS011;44058;52.898;6.502;2024-02-23T22:57:06;2.13;;;1.42;;
58260;SDS011;44058;52.898;6.502;2024-02-23T22:59:33;3.55;;;1.80;;
58260;SDS011;44058;52.898;6.502;2024-02-23T23:02:00;3.35;;;1.83;;
58260;SDS011;44058;52.898;6.502;2024-02-23T23:04:28;4.63;;;1.80;;
58260;SDS011;44058;52.898;6.502;2024-02-23T23:06:55;2.30;;;1.60;;
58260;SDS011;44058;52.898;6.502;2024-02-23T23:09:22;2.50;;;1.88;;
58260;SDS011;44058;52.898;6.502;2024-02-23T23:11:50;2.13;;;1.75;;
58260;SDS011;44058;52.898;6.502;2024-02-23T23:14:17;5.63;;;2.30;;
58260;SDS011;44058;52.898;6.502;2024-02-23T23:16:44;2.92;;;1.98;;
58260;SDS011;44058;52.898;6.502;2024-02-23T23:19:11;3.90;;;1.90;;
58260;SDS011;44058;52.898;6.502;2024-02-23T23:21:38;2.75;;;1.75;;
58260;SDS011;44058;52.898;6.502;2024-02-23T23:24:05;3.45;;;1.88;;
58260;SDS011;44058;52.898;6.502;2024-02-23T23:26:32;3.85;;;1.88;;
58260;SDS011;44058;52.898;6.502;2024-02-23T23:29:00;2.70;;;1.80;;
58260;SDS011;44058;52.898;6.502;2024-02-23T23:31:27;3.40;;;1.90;;
58260;SDS011;44058;52.898;6.502;2024-02-23T23:33:54;3.75;;;1.92;;
58260;SDS011;44058;52.898;6.502;2024-02-23T23:36:21;4.63;;;1.90;;
58260;SDS011;44058;52.898;6.502;2024-02-23T23:38:48;3.13;;;2.08;;
58260;SDS011;44058;52.898;6.502;2024-02-23T23:41:15;4.15;;;2.10;;
58260;SDS011;44058;52.898;6.502;2024-02-23T23:43:43;4.65;;;2.00;;
58260;SDS011;44058;52.898;6.502;2024-02-23T23:46:11;2.95;;;1.90;;
58260;SDS011;44058;52.898;6.502;2024-02-23T23:48:38;3.92;;;2.05;;
58260;SDS011;44058;52.898;6.502;2024-02-23T23:51:05;5.00;;;2.15;;
58260;SDS011;44058;52.898;6.502;2024-02-23T23:53:33;4.00;;;2.10;;
58260;SDS011;44058;52.898;6.502;2024-02-23T23:56:00;2.17;;;1.80;;
58260;SDS011;44058;52.898;6.502;2024-02-23T23:58:28;4.57;;;2.13;;
